createdAt,value
2022-11-29T00:01:35.272Z,20.40
2022-11-29T00:04:03.059Z,20.40
2022-11-29T00:06:31.982Z,20.40
2022-11-29T00:09:06.532Z,20.40
2022-11-29T00:11:54.054Z,20.40
2022-11-29T00:14:21.985Z,20.40
2022-11-29T00:16:56.843Z,20.40
2022-11-29T00:19:23.799Z,20.40
2022-11-29T00:21:51.113Z,20.40
2022-11-29T00:24:18.125Z,20.40
2022-11-29T00:26:44.951Z,20.40
2022-11-29T00:29:12.898Z,20.40
2022-11-29T00:31:40.788Z,20.40
2022-11-29T00:34:10.078Z,20.40
2022-11-29T00:36:36.872Z,20.30
2022-11-29T00:39:05.151Z,20.40
2022-11-29T00:41:32.200Z,20.30
2022-11-29T00:43:58.953Z,20.40
2022-11-29T00:46:25.751Z,20.40
2022-11-29T00:48:52.538Z,20.40
2022-11-29T00:51:19.281Z,20.40
2022-11-29T00:53:46.064Z,20.40
2022-11-29T00:56:12.807Z,20.30
2022-11-29T00:58:39.778Z,20.40
2022-11-29T01:01:06.596Z,20.30
2022-11-29T01:03:33.416Z,20.30
2022-11-29T01:06:05.887Z,20.30
2022-11-29T01:08:32.636Z,20.30
2022-11-29T01:11:05.320Z,20.30
2022-11-29T01:13:32.279Z,20.30
2022-11-29T01:15:59.205Z,20.30
2022-11-29T01:18:26.721Z,20.30
2022-11-29T01:21:06.464Z,20.30
2022-11-29T01:23:34.371Z,20.30
2022-11-29T01:26:04.962Z,20.30
2022-11-29T01:28:31.760Z,20.30
2022-11-29T01:30:58.643Z,20.30
2022-11-29T01:33:25.478Z,20.30
2022-11-29T01:35:55.077Z,20.30
2022-11-29T01:38:22.377Z,20.30
2022-11-29T01:40:59.210Z,20.30
2022-11-29T01:43:26.123Z,20.30
2022-11-29T01:45:53.055Z,20.20
2022-11-29T01:48:40.383Z,20.20
2022-11-29T01:51:07.487Z,20.30
2022-11-29T01:53:34.199Z,20.30
2022-11-29T01:56:04.191Z,20.20
2022-11-29T01:58:35.133Z,20.20
2022-11-29T02:01:01.972Z,20.20
2022-11-29T02:03:28.756Z,20.20
2022-11-29T02:05:55.818Z,20.20
2022-11-29T02:08:31.738Z,20.20
2022-11-29T02:11:23.697Z,20.20
2022-11-29T02:13:56.218Z,20.20
2022-11-29T02:16:28.296Z,20.20
2022-11-29T02:19:07.602Z,20.20
2022-11-29T02:21:43.223Z,20.20
2022-11-29T02:24:16.153Z,20.20
2022-11-29T02:26:57.983Z,20.20
2022-11-29T02:29:27.636Z,20.20
2022-11-29T02:32:19.266Z,20.20
2022-11-29T02:35:17.061Z,20.20
2022-11-29T02:37:59.053Z,20.20
2022-11-29T02:40:56.414Z,20.20
2022-11-29T02:44:00.823Z,20.20
2022-11-29T02:46:43.827Z,20.20
2022-11-29T02:49:22.805Z,20.10
2022-11-29T02:51:57.122Z,20.10
2022-11-29T02:54:41.992Z,20.20
2022-11-29T02:57:27.362Z,20.10
2022-11-29T03:00:08.345Z,20.10
2022-11-29T03:02:51.944Z,20.10
2022-11-29T03:05:47.141Z,20.10
2022-11-29T03:08:32.451Z,20.10
2022-11-29T03:11:08.356Z,20.10
2022-11-29T03:13:53.771Z,20.10
2022-11-29T03:16:29.792Z,20.10
2022-11-29T03:19:26.901Z,20.10
2022-11-29T03:22:09.433Z,20.10
2022-11-29T03:24:45.267Z,20.10
2022-11-29T03:27:16.777Z,20.10
2022-11-29T03:29:53.509Z,20.10
2022-11-29T03:32:33.083Z,20.10
2022-11-29T03:35:04.639Z,20.10
2022-11-29T03:38:07.949Z,20.10
2022-11-29T03:40:59.797Z,20.10
2022-11-29T03:43:44.541Z,20.10
2022-11-29T03:46:25.044Z,20.10
2022-11-29T03:49:01.475Z,20.10
2022-11-29T03:51:49.335Z,20.10
2022-11-29T03:54:36.265Z,20.10
2022-11-29T03:57:03.471Z,20.10
2022-11-29T03:59:30.333Z,20.10
2022-11-29T04:02:09.000Z,20.10
2022-11-29T04:04:53.078Z,20.10
2022-11-29T04:07:19.804Z,20.10
2022-11-29T04:10:04.338Z,20.00
2022-11-29T04:12:46.378Z,20.00
2022-11-29T04:15:48.024Z,20.10
2022-11-29T04:18:57.163Z,20.00
2022-11-29T04:21:46.975Z,20.10
2022-11-29T04:24:40.271Z,20.00
2022-11-29T04:27:35.134Z,20.00
2022-11-29T04:30:02.048Z,20.00
2022-11-29T04:32:53.455Z,20.00
2022-11-29T04:35:25.968Z,20.00
2022-11-29T04:38:26.020Z,20.00
2022-11-29T04:41:13.873Z,20.00
2022-11-29T04:43:40.572Z,20.00
2022-11-29T04:46:35.589Z,20.00
2022-11-29T04:49:08.370Z,20.00
2022-11-29T04:51:58.870Z,20.00
2022-11-29T04:54:43.336Z,20.00
2022-11-29T04:57:35.781Z,20.00
2022-11-29T05:00:15.501Z,20.00
2022-11-29T05:02:51.552Z,20.00
2022-11-29T05:05:48.408Z,20.10
2022-11-29T05:08:27.402Z,20.10
2022-11-29T05:11:05.680Z,20.00
2022-11-29T05:13:49.435Z,20.10
2022-11-29T05:16:31.026Z,20.10
2022-11-29T05:19:25.747Z,20.10
2022-11-29T05:22:01.302Z,20.10
2022-11-29T05:24:58.189Z,20.00
2022-11-29T05:28:10.257Z,20.10
2022-11-29T05:31:14.791Z,20.10
2022-11-29T05:34:03.215Z,20.10
2022-11-29T05:37:07.493Z,20.10
2022-11-29T05:39:37.452Z,20.10
2022-11-29T05:42:27.987Z,20.10
2022-11-29T05:45:07.231Z,20.10
2022-11-29T05:48:00.291Z,20.10
2022-11-29T05:50:39.866Z,20.10
2022-11-29T05:53:35.314Z,20.10
2022-11-29T05:56:40.401Z,20.10
2022-11-29T05:59:15.283Z,20.10
2022-11-29T06:02:02.933Z,20.10
2022-11-29T06:04:54.842Z,20.10
2022-11-29T06:07:35.681Z,20.20
2022-11-29T06:10:13.488Z,20.20
2022-11-29T06:12:42.650Z,20.20
2022-11-29T06:16:06.200Z,20.20
2022-11-29T06:18:56.508Z,20.20
2022-11-29T06:21:48.201Z,20.20
2022-11-29T06:24:25.775Z,20.20
2022-11-29T06:26:55.977Z,20.20
2022-11-29T06:29:43.518Z,20.20
2022-11-29T06:32:25.423Z,20.20
2022-11-29T06:35:25.549Z,20.30
2022-11-29T06:37:58.461Z,20.30
2022-11-29T06:40:25.650Z,20.30
2022-11-29T06:42:54.734Z,20.30
2022-11-29T06:45:22.086Z,20.30
2022-11-29T06:48:00.559Z,20.30
2022-11-29T06:50:33.491Z,20.30
2022-11-29T06:53:08.345Z,20.30
2022-11-29T06:55:52.861Z,20.30
2022-11-29T06:58:50.094Z,20.30
2022-11-29T07:01:47.905Z,20.30
2022-11-29T07:04:32.895Z,20.30
2022-11-29T07:06:59.923Z,20.30
2022-11-29T07:09:33.041Z,20.30
2022-11-29T07:12:00.119Z,20.30
2022-11-29T07:14:27.118Z,20.40
2022-11-29T07:17:06.628Z,20.40
2022-11-29T07:19:51.116Z,20.40
2022-11-29T07:22:26.716Z,20.40
2022-11-29T07:25:29.145Z,20.40
2022-11-29T07:28:23.547Z,20.40
2022-11-29T07:31:02.370Z,20.40
2022-11-29T07:33:29.128Z,20.40
2022-11-29T07:36:25.868Z,20.40
2022-11-29T07:39:10.917Z,20.40
2022-11-29T07:41:46.850Z,20.40
2022-11-29T07:44:20.131Z,20.40
2022-11-29T07:46:47.024Z,20.40
2022-11-29T07:49:13.868Z,20.40
2022-11-29T07:51:40.661Z,20.40
2022-11-29T07:54:07.957Z,20.40
2022-11-29T07:56:34.686Z,20.40
2022-11-29T07:59:01.982Z,20.40
2022-11-29T08:01:28.779Z,20.40
2022-11-29T08:03:55.482Z,20.40
2022-11-29T08:06:26.083Z,20.40
2022-11-29T08:08:52.872Z,20.40
2022-11-29T08:11:20.039Z,20.50
2022-11-29T08:13:46.705Z,20.50
2022-11-29T08:16:19.773Z,20.50
2022-11-29T08:18:46.955Z,20.50
2022-11-29T08:21:18.005Z,20.50
2022-11-29T08:23:46.293Z,20.50
2022-11-29T08:26:14.492Z,20.50
2022-11-29T08:28:41.275Z,20.50
2022-11-29T08:31:11.020Z,20.50
2022-11-29T08:33:39.554Z,20.50
2022-11-29T08:36:08.974Z,20.50
2022-11-29T08:38:35.740Z,20.50
2022-11-29T08:41:03.433Z,20.50
2022-11-29T08:43:31.541Z,20.50
2022-11-29T08:45:58.526Z,20.50
2022-11-29T08:48:28.311Z,20.50
2022-11-29T08:50:56.761Z,20.50
2022-11-29T08:53:43.382Z,20.50
2022-11-29T08:57:10.294Z,20.50
2022-11-29T08:59:10.448Z,20.50
2022-11-29T09:01:37.181Z,20.50
2022-11-29T09:04:07.808Z,20.50
2022-11-29T09:06:39.526Z,20.50
2022-11-29T09:09:06.764Z,20.50
2022-11-29T09:11:35.222Z,20.50
2022-11-29T09:14:07.269Z,20.50
2022-11-29T09:16:36.840Z,20.40
2022-11-29T09:19:05.080Z,20.40
2022-11-29T09:21:32.519Z,20.40
2022-11-29T09:24:01.260Z,20.40
2022-11-29T09:26:33.415Z,20.40
2022-11-29T09:29:02.106Z,20.40
2022-11-29T09:31:30.249Z,20.40
2022-11-29T09:33:57.061Z,20.40
2022-11-29T09:36:28.499Z,20.40
2022-11-29T09:38:57.096Z,20.40
2022-11-29T09:42:01.798Z,20.40
2022-11-29T09:44:28.464Z,20.40
2022-11-29T09:47:18.804Z,20.40
2022-11-29T09:49:52.381Z,20.30
2022-11-29T09:52:43.003Z,20.30
2022-11-29T09:55:40.820Z,20.30
2022-11-29T09:58:11.531Z,20.40
2022-11-29T10:00:48.169Z,20.40
2022-11-29T10:03:38.198Z,20.40
2022-11-29T10:06:17.888Z,20.40
2022-11-29T10:08:51.653Z,20.40
2022-11-29T10:11:25.164Z,20.40
2022-11-29T10:14:01.312Z,20.40
2022-11-29T10:16:43.250Z,20.40
2022-11-29T10:19:28.153Z,20.40
2022-11-29T10:22:06.326Z,20.40
2022-11-29T10:24:34.714Z,20.40
2022-11-29T10:27:01.747Z,20.40
2022-11-29T10:29:28.587Z,20.40
2022-11-29T10:31:56.830Z,20.40
2022-11-29T10:34:26.192Z,20.40
2022-11-29T10:37:02.308Z,20.40
2022-11-29T10:39:46.830Z,20.50
2022-11-29T10:42:37.426Z,20.40
2022-11-29T10:45:10.853Z,20.40
2022-11-29T10:47:37.597Z,20.40
2022-11-29T10:50:04.658Z,20.40
2022-11-29T10:52:31.400Z,20.40
2022-11-29T10:54:59.470Z,20.40
2022-11-29T10:57:26.587Z,20.30
2022-11-29T11:16:27.002Z,19.10
2022-11-29T11:18:54.495Z,19.20
2022-11-29T11:21:25.733Z,19.30
2022-11-29T11:24:01.944Z,19.40
2022-11-29T11:26:42.467Z,19.50
2022-11-29T11:29:41.207Z,19.60
2022-11-29T11:32:18.611Z,19.60
2022-11-29T11:34:57.046Z,19.70
2022-11-29T11:37:35.823Z,19.70
2022-11-29T11:40:41.158Z,19.80
2022-11-29T11:43:20.886Z,19.80
2022-11-29T11:45:54.946Z,19.80
2022-11-29T11:48:22.323Z,19.80
2022-11-29T11:50:58.263Z,19.90
2022-11-29T11:53:37.367Z,19.90
2022-11-29T11:56:10.805Z,19.90
2022-11-29T11:58:50.296Z,19.90
2022-11-29T12:01:38.745Z,20.00
2022-11-29T12:04:11.306Z,20.00
2022-11-29T12:06:56.043Z,20.00
2022-11-29T12:09:46.616Z,20.00
2022-11-29T12:12:27.289Z,20.00
2022-11-29T12:14:59.646Z,20.00
2022-11-29T12:17:41.481Z,20.00
2022-11-29T12:20:11.279Z,20.00
2022-11-29T12:22:48.627Z,20.00
2022-11-29T12:25:24.296Z,20.10
2022-11-29T12:27:51.303Z,20.10
2022-11-29T12:30:19.370Z,20.10
2022-11-29T12:32:54.316Z,20.10
2022-11-29T12:35:45.779Z,20.10
2022-11-29T12:38:35.346Z,20.10
2022-11-29T12:41:26.854Z,20.10
2022-11-29T12:43:59.988Z,20.10
2022-11-29T12:46:28.945Z,20.10
2022-11-29T12:49:01.408Z,20.10
2022-11-29T12:51:32.939Z,20.10
2022-11-29T12:54:18.543Z,20.10
2022-11-29T12:56:48.351Z,20.20
2022-11-29T12:59:47.808Z,20.20
2022-11-29T13:02:27.861Z,20.20
2022-11-29T13:05:24.271Z,20.20
2022-11-29T13:08:10.276Z,20.00
2022-11-29T13:10:37.407Z,20.00
2022-11-29T13:13:31.740Z,20.00
2022-11-29T13:16:09.390Z,20.00
2022-11-29T13:19:07.156Z,20.10
2022-11-29T13:21:33.838Z,20.10
2022-11-29T13:24:28.795Z,20.00
2022-11-29T13:26:56.422Z,20.10
2022-11-29T13:29:24.518Z,20.10
2022-11-29T13:31:51.736Z,19.60
2022-11-29T13:34:36.577Z,19.30
2022-11-29T13:37:28.671Z,19.00
2022-11-29T13:40:24.167Z,18.60
2022-11-29T13:43:23.496Z,18.30
2022-11-29T13:46:01.924Z,18.20
2022-11-29T13:48:28.644Z,18.00
2022-11-29T13:50:57.058Z,17.80
2022-11-29T13:53:25.719Z,17.70
2022-11-29T13:56:01.270Z,17.60
2022-11-29T13:58:27.996Z,17.50
2022-11-29T14:01:12.014Z,17.40
2022-11-29T14:03:50.303Z,17.20
2022-11-29T14:06:21.873Z,17.20
2022-11-29T14:11:49.156Z,17.00
2022-11-29T14:14:15.837Z,16.90
2022-11-29T14:16:42.959Z,16.90
2022-11-29T14:19:09.958Z,17.00
2022-11-29T14:22:04.572Z,17.10
2022-11-29T14:24:34.405Z,17.10
2022-11-29T14:27:07.036Z,17.10
2022-11-29T14:29:49.035Z,17.10
2022-11-29T14:32:42.802Z,17.00
2022-11-29T14:35:12.650Z,16.80
2022-11-29T14:37:42.881Z,16.70
2022-11-29T14:40:41.998Z,16.60
2022-11-29T14:43:38.275Z,16.50
2022-11-29T14:46:17.103Z,16.40
2022-11-29T14:48:58.973Z,16.40
2022-11-29T14:51:31.809Z,16.30
2022-11-29T14:54:20.120Z,16.30
2022-11-29T14:56:47.438Z,16.20
2022-11-29T14:59:47.509Z,16.10
2022-11-29T15:02:35.812Z,16.10
2022-11-29T15:05:15.450Z,15.90
2022-11-29T15:07:47.322Z,15.80
2022-11-29T15:10:20.112Z,16.10
2022-11-29T15:12:48.613Z,16.40
2022-11-29T15:15:40.716Z,16.60
2022-11-29T15:18:33.479Z,16.90
2022-11-29T15:21:28.498Z,17.10
2022-11-29T15:24:12.904Z,17.30
2022-11-29T15:26:54.274Z,17.50
2022-11-29T15:29:21.520Z,17.60
2022-11-29T15:32:00.729Z,17.70
2022-11-29T15:34:50.181Z,17.50
2022-11-29T15:37:32.236Z,17.10
2022-11-29T15:40:12.066Z,17.10
2022-11-29T15:42:47.096Z,17.30
2022-11-29T15:45:35.228Z,17.50
2022-11-29T15:48:13.989Z,17.60
2022-11-29T15:50:50.104Z,17.80
2022-11-29T15:53:23.211Z,17.90
2022-11-29T15:55:52.566Z,18.00
2022-11-29T15:58:20.428Z,18.10
2022-11-29T16:00:50.797Z,18.20
2022-11-29T16:03:30.703Z,18.30
2022-11-29T16:06:06.681Z,18.30
2022-11-29T16:08:38.127Z,18.40
2022-11-29T16:11:06.799Z,18.40
2022-11-29T16:13:38.311Z,18.50
2022-11-29T16:16:19.136Z,18.60
2022-11-29T16:18:47.967Z,18.60
2022-11-29T16:21:31.887Z,18.70
2022-11-29T16:24:10.526Z,18.70
2022-11-29T16:26:44.027Z,18.70
2022-11-29T16:29:49.957Z,18.80
2022-11-29T16:32:48.527Z,18.80
2022-11-29T16:35:22.373Z,18.90
2022-11-29T16:37:49.424Z,19.00
2022-11-29T16:40:24.074Z,18.90
2022-11-29T16:43:07.768Z,18.90
2022-11-29T16:45:39.165Z,19.00
2022-11-29T16:48:25.497Z,19.00
2022-11-29T16:51:10.815Z,19.00
2022-11-29T16:53:39.616Z,19.10
2022-11-29T16:56:10.185Z,19.10
2022-11-29T16:59:16.710Z,19.10
2022-11-29T17:01:25.049Z,19.10
2022-11-29T17:03:53.122Z,19.20
2022-11-29T17:06:24.868Z,19.20
2022-11-29T17:08:53.828Z,19.20
2022-11-29T17:11:20.535Z,19.30
2022-11-29T17:13:50.295Z,19.30
2022-11-29T17:16:19.827Z,19.30
2022-11-29T17:18:46.839Z,19.30
2022-11-29T17:21:29.414Z,19.30
2022-11-29T17:23:56.110Z,19.40
2022-11-29T17:26:23.722Z,19.40
2022-11-29T17:28:52.278Z,19.40
2022-11-29T17:31:22.253Z,19.40
2022-11-29T17:33:49.253Z,19.40
2022-11-29T17:36:19.282Z,19.40
2022-11-29T17:38:46.408Z,19.40
2022-11-29T17:41:15.671Z,19.50
2022-11-29T17:43:42.482Z,19.50
2022-11-29T17:46:12.071Z,19.50
2022-11-29T17:48:38.959Z,19.50
2022-11-29T17:51:17.245Z,19.50
2022-11-29T17:53:53.874Z,19.60
2022-11-29T17:56:23.216Z,19.60
2022-11-29T17:58:57.630Z,19.60
2022-11-29T18:01:29.155Z,19.60
2022-11-29T18:03:58.494Z,19.60
2022-11-29T18:06:27.586Z,19.60
2022-11-29T18:08:57.859Z,19.70
2022-11-29T18:11:27.832Z,19.70
2022-11-29T18:13:56.224Z,19.70
2022-11-29T18:16:31.761Z,19.70
2022-11-29T18:19:04.559Z,19.70
2022-11-29T18:21:32.258Z,19.70
2022-11-29T18:24:00.506Z,19.70
2022-11-29T18:26:29.126Z,19.70
2022-11-29T18:28:58.987Z,19.70
2022-11-29T18:31:30.724Z,19.80
2022-11-29T18:33:59.712Z,19.80
2022-11-29T18:36:31.691Z,19.80
2022-11-29T18:39:01.093Z,19.80
2022-11-29T18:41:29.161Z,19.80
2022-11-29T18:44:01.973Z,19.80
2022-11-29T18:46:36.638Z,19.80
2022-11-29T18:49:05.747Z,19.80
2022-11-29T18:51:32.792Z,19.90
2022-11-29T18:54:00.635Z,19.90
2022-11-29T18:56:29.861Z,19.90
2022-11-29T18:59:10.128Z,19.90
2022-11-29T19:01:41.230Z,19.90
2022-11-29T19:04:14.150Z,19.90
2022-11-29T19:06:41.542Z,19.90
2022-11-29T19:09:13.156Z,19.90
2022-11-29T19:11:40.377Z,19.90
2022-11-29T19:14:12.911Z,19.90
2022-11-29T19:16:45.503Z,20.00
2022-11-29T19:19:13.076Z,20.00
2022-11-29T19:21:40.392Z,20.00
2022-11-29T19:24:13.688Z,20.00
2022-11-29T19:26:42.151Z,20.00
2022-11-29T19:29:09.100Z,20.00
2022-11-29T19:31:42.263Z,20.00
2022-11-29T19:34:08.987Z,20.00
2022-11-29T19:36:42.316Z,20.00
2022-11-29T19:39:10.123Z,20.10
2022-11-29T19:41:37.781Z,20.10
2022-11-29T19:44:07.940Z,20.10
2022-11-29T19:46:44.302Z,20.10
2022-11-29T19:49:14.112Z,20.10
2022-11-29T19:51:43.154Z,20.10
2022-11-29T19:54:10.669Z,20.10
2022-11-29T19:56:38.939Z,20.10
2022-11-29T19:59:07.576Z,20.10
2022-11-29T20:01:40.744Z,20.10
2022-11-29T20:04:10.768Z,20.10
2022-11-29T20:06:38.587Z,20.10
2022-11-29T20:09:06.431Z,20.10
2022-11-29T20:11:33.305Z,20.10
2022-11-29T20:14:02.718Z,20.10
2022-11-29T20:16:31.460Z,20.20
2022-11-29T20:18:59.028Z,20.20
2022-11-29T20:21:31.571Z,20.20
2022-11-29T20:24:00.938Z,20.20
2022-11-29T20:26:28.711Z,20.20
2022-11-29T20:28:55.753Z,20.20
2022-11-29T20:31:23.419Z,20.20
2022-11-29T20:33:52.629Z,20.20
2022-11-29T20:36:34.660Z,20.20
2022-11-29T20:39:22.767Z,20.30
2022-11-29T20:42:08.173Z,20.20
2022-11-29T20:44:44.160Z,20.20
2022-11-29T20:47:19.409Z,20.30
2022-11-29T20:49:46.685Z,20.20
2022-11-29T20:52:42.932Z,20.30
2022-11-29T20:55:09.939Z,20.30
2022-11-29T20:57:38.400Z,20.30
2022-11-29T21:00:11.354Z,20.30
2022-11-29T21:02:39.096Z,20.30
2022-11-29T21:05:06.767Z,20.30
2022-11-29T21:07:33.792Z,20.30
2022-11-29T21:10:02.863Z,20.30
2022-11-29T21:12:30.296Z,20.30
2022-11-29T21:14:57.807Z,20.40
2022-11-29T21:17:30.229Z,20.30
2022-11-29T21:20:00.253Z,20.40
2022-11-29T21:23:02.053Z,20.40
2022-11-29T21:25:54.354Z,20.40
2022-11-29T21:28:29.335Z,20.30
2022-11-29T21:30:56.787Z,20.40
2022-11-29T21:33:23.860Z,20.40
2022-11-29T21:35:56.135Z,20.40
2022-11-29T21:38:25.573Z,20.40
2022-11-29T21:40:52.308Z,20.40
2022-11-29T21:43:20.724Z,20.40
2022-11-29T21:45:49.511Z,20.40
2022-11-29T21:48:34.671Z,20.40
2022-11-29T21:51:03.150Z,20.40
2022-11-29T21:53:30.373Z,20.40
2022-11-29T21:56:03.708Z,20.40
2022-11-29T21:58:32.232Z,20.40
2022-11-29T22:01:06.944Z,20.40
2022-11-29T22:03:33.774Z,20.40
2022-11-29T22:06:05.761Z,20.50
2022-11-29T22:08:38.885Z,20.50
2022-11-29T22:11:11.714Z,20.50
2022-11-29T22:13:58.198Z,20.50
2022-11-29T22:16:25.431Z,20.50
2022-11-29T22:18:52.386Z,20.50
2022-11-29T22:21:19.451Z,20.50
2022-11-29T22:23:46.443Z,20.50
2022-11-29T22:26:16.217Z,20.50
2022-11-29T22:28:42.937Z,20.50
2022-11-29T22:31:11.431Z,20.50
2022-11-29T22:33:38.856Z,20.50
2022-11-29T22:36:11.816Z,20.50
2022-11-29T22:38:39.956Z,20.50
2022-11-29T22:41:08.516Z,20.50
2022-11-29T22:43:35.964Z,20.50
2022-11-29T22:46:20.765Z,20.50
2022-11-29T22:48:50.760Z,20.50
2022-11-29T22:51:20.407Z,20.50
2022-11-29T22:53:52.753Z,20.50
2022-11-29T22:56:20.816Z,20.50
2022-11-29T22:58:47.579Z,20.50
2022-11-29T23:01:17.205Z,20.50
2022-11-29T23:03:51.833Z,20.50
2022-11-29T23:06:24.978Z,20.50
2022-11-29T23:08:53.514Z,20.50
2022-11-29T23:11:23.240Z,20.50
2022-11-29T23:13:50.154Z,20.50
2022-11-29T23:16:19.597Z,20.50
2022-11-29T23:18:46.863Z,20.50
2022-11-29T23:21:19.963Z,20.50
2022-11-29T23:23:50.292Z,20.50
2022-11-29T23:26:28.684Z,20.50
2022-11-29T23:28:56.007Z,20.50
2022-11-29T23:31:26.514Z,20.50
2022-11-29T23:33:53.606Z,20.50
2022-11-29T23:36:20.596Z,20.50
2022-11-29T23:38:47.509Z,20.50
2022-11-29T23:41:14.851Z,20.50
2022-11-29T23:43:42.140Z,20.50
2022-11-29T23:46:20.389Z,20.50
2022-11-29T23:48:47.374Z,20.50
2022-11-29T23:51:15.451Z,20.50
2022-11-29T23:53:42.850Z,20.50
2022-11-29T23:56:17.364Z,20.50
2022-11-29T23:58:44.676Z,20.50
